createdAt,value
2023-04-18T00:02:31.588Z,13.30
2023-04-18T00:05:10.480Z,13.30
2023-04-18T00:07:47.028Z,13.30
2023-04-18T00:10:24.452Z,13.30
2023-04-18T00:13:00.512Z,13.30
2023-04-18T00:15:37.170Z,13.30
2023-04-18T00:18:16.542Z,13.20
2023-04-18T00:20:53.359Z,13.20
2023-04-18T00:23:30.460Z,13.20
2023-04-18T00:26:08.084Z,13.20
2023-04-18T00:28:44.615Z,13.14
2023-04-18T00:31:21.049Z,13.20
2023-04-18T00:33:57.876Z,13.20
2023-04-18T00:36:34.364Z,13.20
2023-04-18T00:39:11.725Z,13.20
2023-04-18T00:41:48.492Z,13.20
2023-04-18T00:44:25.243Z,13.26
2023-04-18T00:47:02.054Z,13.30
2023-04-18T00:49:39.494Z,13.30
2023-04-18T00:52:17.094Z,13.30
2023-04-18T00:54:54.503Z,13.30
2023-04-18T00:57:31.108Z,13.30
2023-04-18T01:00:12.519Z,13.32
2023-04-18T01:02:50.023Z,13.40
2023-04-18T01:05:29.332Z,13.40
2023-04-18T01:08:09.232Z,13.40
2023-04-18T01:10:45.084Z,13.40
2023-04-18T01:13:25.470Z,13.46
2023-04-18T01:16:01.580Z,13.50
2023-04-18T01:18:40.459Z,13.50
2023-04-18T01:21:18.590Z,13.50
2023-04-18T01:23:56.200Z,13.50
2023-04-18T01:26:33.337Z,13.58
2023-04-18T01:29:10.123Z,13.60
2023-04-18T01:31:46.559Z,13.60
2023-04-18T01:34:26.035Z,13.64
2023-04-18T01:37:02.101Z,13.70
2023-04-18T01:39:37.603Z,13.70
2023-04-18T01:42:14.335Z,13.70
2023-04-18T01:44:50.835Z,13.70
2023-04-18T01:47:27.814Z,13.70
2023-04-18T01:50:08.137Z,13.70
2023-04-18T01:52:44.191Z,13.72
2023-04-18T01:55:22.294Z,13.80
2023-04-18T01:57:58.583Z,13.80
2023-04-18T02:00:34.885Z,13.80
2023-04-18T02:03:11.181Z,13.76
2023-04-18T02:05:47.555Z,13.78
2023-04-18T02:08:24.665Z,13.72
2023-04-18T02:11:01.719Z,13.72
2023-04-18T02:13:37.955Z,13.70
2023-04-18T02:16:19.874Z,13.70
2023-04-18T02:18:56.769Z,13.70
2023-04-18T02:21:33.773Z,13.70
2023-04-18T02:24:10.511Z,13.70
2023-04-18T02:26:48.420Z,13.70
2023-04-18T02:29:25.530Z,13.70
2023-04-18T02:32:02.669Z,13.70
2023-04-18T02:34:39.421Z,13.70
2023-04-18T02:37:15.792Z,13.70
2023-04-18T02:39:53.116Z,13.70
2023-04-18T02:42:29.472Z,13.70
2023-04-18T02:45:05.765Z,13.70
2023-04-18T02:47:51.696Z,13.70
2023-04-18T02:50:31.900Z,13.70
2023-04-18T02:53:08.722Z,13.70
2023-04-18T02:56:00.458Z,13.70
2023-04-18T02:58:44.350Z,13.70
2023-04-18T03:01:48.219Z,13.70
2023-04-18T03:04:27.644Z,13.70
2023-04-18T03:07:09.967Z,13.70
2023-04-18T03:09:47.098Z,13.70
2023-04-18T03:12:34.192Z,13.70
2023-04-18T03:15:15.181Z,13.72
2023-04-18T03:17:52.022Z,13.72
2023-04-18T03:20:30.885Z,13.74
2023-04-18T03:23:07.803Z,13.80
2023-04-18T03:25:45.321Z,13.78
2023-04-18T03:28:21.489Z,13.78
2023-04-18T03:30:57.452Z,13.80
2023-04-18T03:33:34.354Z,13.80
2023-04-18T03:36:18.000Z,13.80
2023-04-18T03:38:54.487Z,13.80
2023-04-18T03:41:32.091Z,13.80
2023-04-18T03:44:09.097Z,13.80
2023-04-18T03:46:46.673Z,13.80
2023-04-18T03:49:23.358Z,13.80
2023-04-18T03:51:59.403Z,13.80
2023-04-18T03:54:35.481Z,13.80
2023-04-18T03:57:13.201Z,13.80
2023-04-18T03:59:52.243Z,13.80
2023-04-18T04:02:29.086Z,13.80
2023-04-18T04:05:05.792Z,13.80
2023-04-18T04:07:42.888Z,13.80
2023-04-18T04:10:20.424Z,13.80
2023-04-18T04:12:57.698Z,13.80
2023-04-18T04:15:34.514Z,13.80
2023-04-18T04:18:14.811Z,13.74
2023-04-18T04:20:54.498Z,13.70
2023-04-18T04:23:54.270Z,13.70
2023-04-18T04:26:40.356Z,13.70
2023-04-18T04:29:24.187Z,13.68
2023-04-18T04:32:02.073Z,13.60
2023-04-18T04:34:44.679Z,13.60
2023-04-18T04:37:21.929Z,13.60
2023-04-18T04:40:23.466Z,13.60
2023-04-18T04:43:04.938Z,13.60
2023-04-18T04:45:45.438Z,13.58
2023-04-18T04:48:22.286Z,13.52
2023-04-18T04:51:02.583Z,13.60
2023-04-18T04:53:38.585Z,13.54
2023-04-18T04:56:18.136Z,13.50
2023-04-18T04:58:56.496Z,13.50
2023-04-18T05:01:39.413Z,13.50
2023-04-18T05:04:16.314Z,13.50
2023-04-18T05:06:52.790Z,13.50
2023-04-18T05:09:37.418Z,13.50
2023-04-18T05:12:17.732Z,13.50
2023-04-18T05:14:54.033Z,13.58
2023-04-18T05:17:30.573Z,13.60
2023-04-18T05:20:07.317Z,13.60
2023-04-18T05:22:43.789Z,13.60
2023-04-18T05:25:20.856Z,13.60
2023-04-18T05:27:57.311Z,13.60
2023-04-18T05:30:34.198Z,13.70
2023-04-18T05:33:11.810Z,13.72
2023-04-18T05:35:51.031Z,13.80
2023-04-18T05:38:27.616Z,13.84
2023-04-18T05:41:04.601Z,13.90
2023-04-18T05:43:43.017Z,14.00
2023-04-18T05:46:22.917Z,14.00
2023-04-18T05:48:59.415Z,14.10
2023-04-18T05:51:36.038Z,14.12
2023-04-18T05:54:13.061Z,14.20
2023-04-18T05:56:49.656Z,14.28
2023-04-18T05:59:27.040Z,14.40
2023-04-18T06:02:03.617Z,14.52
2023-04-18T06:04:39.305Z,14.72
2023-04-18T06:07:15.535Z,14.90
2023-04-18T06:09:51.773Z,15.10
2023-04-18T06:12:28.432Z,15.30
2023-04-18T06:15:04.002Z,15.50
2023-04-18T06:17:39.623Z,15.70
2023-04-18T06:20:20.266Z,15.90
2023-04-18T06:23:16.778Z,16.10
2023-04-18T06:25:54.236Z,16.30
2023-04-18T06:28:30.789Z,16.40
2023-04-18T06:31:09.239Z,16.50
2023-04-18T06:33:45.784Z,16.50
2023-04-18T06:36:23.983Z,16.60
2023-04-18T06:39:00.181Z,16.70
2023-04-18T06:41:36.895Z,16.80
2023-04-18T06:44:14.764Z,16.80
2023-04-18T06:46:52.208Z,16.92
2023-04-18T06:49:33.548Z,17.00
2023-04-18T06:52:10.526Z,17.10
2023-04-18T06:54:47.608Z,17.20
2023-04-18T06:57:24.670Z,17.30
2023-04-18T07:00:01.265Z,17.40
2023-04-18T07:02:40.816Z,17.50
2023-04-18T07:05:22.300Z,17.62
2023-04-18T07:07:59.297Z,17.80
2023-04-18T07:10:35.496Z,17.90
2023-04-18T07:13:11.553Z,18.10
2023-04-18T07:15:47.686Z,18.10
2023-04-18T07:18:36.686Z,18.20
2023-04-18T07:21:15.289Z,18.30
2023-04-18T07:23:51.862Z,18.40
2023-04-18T07:26:28.749Z,18.40
2023-04-18T07:29:04.771Z,18.50
2023-04-18T07:31:40.711Z,18.50
2023-04-18T07:34:17.664Z,18.60
2023-04-18T07:36:53.952Z,18.66
2023-04-18T07:39:32.261Z,18.70
2023-04-18T07:42:11.554Z,18.78
2023-04-18T07:44:48.010Z,18.80
2023-04-18T07:47:24.837Z,18.88
2023-04-18T07:50:01.087Z,18.90
2023-04-18T07:52:39.341Z,18.90
2023-04-18T07:55:18.717Z,18.94
2023-04-18T07:57:55.147Z,19.00
2023-04-18T08:00:33.746Z,19.02
2023-04-18T08:03:12.988Z,19.10
2023-04-18T08:05:51.102Z,19.20
2023-04-18T08:08:28.442Z,19.20
2023-04-18T08:11:05.849Z,19.30
2023-04-18T08:13:42.970Z,19.30
2023-04-18T08:16:19.759Z,19.32
2023-04-18T08:18:56.043Z,19.36
2023-04-18T08:21:32.643Z,19.30
2023-04-18T08:24:11.469Z,19.30
2023-04-18T08:26:48.093Z,19.30
2023-04-18T08:29:27.610Z,19.20
2023-04-18T08:32:03.641Z,19.10
2023-04-18T08:34:44.450Z,19.10
2023-04-18T08:37:22.031Z,19.16
2023-04-18T08:39:59.031Z,19.20
2023-04-18T08:42:36.231Z,19.24
2023-04-18T08:45:16.966Z,19.30
2023-04-18T08:47:53.447Z,19.40
2023-04-18T08:50:30.604Z,19.50
2023-04-18T08:53:07.927Z,19.60
2023-04-18T08:55:44.629Z,19.60
2023-04-18T08:58:32.507Z,19.64
2023-04-18T09:01:11.888Z,19.70
2023-04-18T09:03:49.705Z,19.70
2023-04-18T09:06:27.847Z,19.80
2023-04-18T09:09:04.357Z,19.84
2023-04-18T09:11:43.329Z,19.86
2023-04-18T09:14:31.030Z,19.90
2023-04-18T09:17:08.734Z,20.00
2023-04-18T09:19:54.665Z,20.00
2023-04-18T09:22:46.289Z,20.10
2023-04-18T09:25:41.648Z,20.10
2023-04-18T09:28:31.673Z,20.10
2023-04-18T09:31:16.516Z,20.10
2023-04-18T09:34:00.792Z,20.10
2023-04-18T09:36:38.058Z,20.10
2023-04-18T09:39:29.390Z,20.20
2023-04-18T09:42:10.879Z,20.28
2023-04-18T09:45:07.727Z,20.30
2023-04-18T09:47:44.543Z,20.30
2023-04-18T09:50:21.083Z,20.30
2023-04-18T09:53:00.190Z,20.30
2023-04-18T09:55:39.447Z,20.40
2023-04-18T09:58:18.762Z,20.40
2023-04-18T10:00:57.185Z,20.40
2023-04-18T10:03:47.755Z,20.40
2023-04-18T10:06:24.648Z,20.40
2023-04-18T10:09:01.457Z,20.40
2023-04-18T10:11:38.803Z,20.50
2023-04-18T10:14:19.138Z,20.60
2023-04-18T10:16:55.593Z,20.64
2023-04-18T10:19:32.899Z,20.76
2023-04-18T10:22:10.678Z,20.88
